createdAt,value
2023-10-13T00:00:43.417Z,18.09
2023-10-13T00:03:15.845Z,18.10
2023-10-13T00:05:43.714Z,18.12
2023-10-13T00:08:13.540Z,18.10
2023-10-13T00:10:40.414Z,18.14
2023-10-13T00:13:09.459Z,18.10
2023-10-13T00:15:47.500Z,18.10
2023-10-13T00:18:14.452Z,18.08
2023-10-13T00:20:44.922Z,18.18
2023-10-13T00:23:11.788Z,18.08
2023-10-13T00:25:38.773Z,18.21
2023-10-13T00:28:07.393Z,18.16
2023-10-13T00:30:35.388Z,18.17
2023-10-13T00:33:04.124Z,18.09
2023-10-13T00:35:31.756Z,18.06
2023-10-13T00:37:59.157Z,17.99
2023-10-13T00:40:26.663Z,17.97
2023-10-13T00:42:54.611Z,17.95
2023-10-13T00:45:21.560Z,17.94
2023-10-13T00:47:48.686Z,17.91
2023-10-13T00:50:16.162Z,17.91
2023-10-13T00:52:48.988Z,17.89
2023-10-13T00:55:16.222Z,17.91
2023-10-13T00:57:43.490Z,17.95
2023-10-13T01:00:13.779Z,17.88
2023-10-13T01:02:42.447Z,17.98
2023-10-13T01:05:10.520Z,18.02
2023-10-13T01:07:37.963Z,18.02
2023-10-13T01:10:15.690Z,18.01
2023-10-13T01:12:43.015Z,18.04
2023-10-13T01:15:10.699Z,17.99
2023-10-13T01:17:39.882Z,18.11
2023-10-13T01:20:07.264Z,18.18
2023-10-13T01:22:34.276Z,18.18
2023-10-13T01:25:01.272Z,18.22
2023-10-13T01:27:29.607Z,18.33
2023-10-13T01:30:00.839Z,18.34
2023-10-13T01:32:28.303Z,18.47
2023-10-13T01:35:06.030Z,18.40
2023-10-13T01:37:35.966Z,18.53
2023-10-13T01:40:03.039Z,18.54
2023-10-13T01:42:29.948Z,18.48
2023-10-13T01:44:56.695Z,18.56
2023-10-13T01:47:23.668Z,18.55
2023-10-13T01:49:56.901Z,18.57
2023-10-13T01:52:30.777Z,18.48
2023-10-13T01:54:58.622Z,18.62
2023-10-13T01:57:25.765Z,18.57
2023-10-13T01:59:52.712Z,18.55
2023-10-13T02:02:19.666Z,18.52
2023-10-13T02:04:46.643Z,18.51
2023-10-13T02:07:13.686Z,18.45
2023-10-13T02:12:27.038Z,18.41
2023-10-13T02:14:53.944Z,18.37
2023-10-13T02:17:20.726Z,18.34
2023-10-13T02:19:47.726Z,18.28
2023-10-13T02:22:15.722Z,18.21
2023-10-13T02:24:42.623Z,18.17
2023-10-13T02:27:09.583Z,18.17
2023-10-13T02:29:36.488Z,18.11
2023-10-13T02:32:07.266Z,18.09
2023-10-13T02:34:34.136Z,18.09
2023-10-13T02:37:05.713Z,18.04
2023-10-13T02:39:32.620Z,17.89
2023-10-13T02:41:59.396Z,17.91
2023-10-13T02:44:26.680Z,17.84
2023-10-13T02:46:56.167Z,17.92
2023-10-13T02:49:33.043Z,17.90
2023-10-13T02:51:59.918Z,17.85
2023-10-13T02:54:27.040Z,17.70
2023-10-13T02:57:00.714Z,17.60
2023-10-13T02:59:28.862Z,17.56
2023-10-13T03:04:27.860Z,17.38
2023-10-13T03:07:02.687Z,17.35
2023-10-13T03:09:29.466Z,17.32
2023-10-13T03:11:57.841Z,17.30
2023-10-13T03:14:31.707Z,17.18
2023-10-13T03:17:03.692Z,17.28
2023-10-13T03:19:37.834Z,17.27
2023-10-13T03:22:10.199Z,17.17
2023-10-13T03:24:40.767Z,17.20
2023-10-13T03:27:09.997Z,17.21
2023-10-13T03:29:40.981Z,17.21
2023-10-13T03:32:07.812Z,17.27
2023-10-13T03:34:34.735Z,17.26
2023-10-13T03:37:02.207Z,17.33
2023-10-13T03:39:36.021Z,17.27
2023-10-13T03:42:03.006Z,17.38
2023-10-13T03:44:38.270Z,17.34
2023-10-13T03:47:08.260Z,17.34
2023-10-13T03:49:40.472Z,17.44
2023-10-13T03:52:17.053Z,17.46
2023-10-13T03:54:44.513Z,17.50
2023-10-13T03:57:15.401Z,17.46
2023-10-13T03:59:45.198Z,17.51
2023-10-13T04:02:12.056Z,17.51
2023-10-13T04:04:39.316Z,17.50
2023-10-13T04:07:06.414Z,17.52
2023-10-13T04:09:33.386Z,17.51
2023-10-13T04:12:11.048Z,17.47
2023-10-13T04:14:41.350Z,17.51
2023-10-13T04:17:11.695Z,17.41
2023-10-13T04:19:47.667Z,17.50
2023-10-13T04:22:16.082Z,17.48
2023-10-13T04:24:42.946Z,17.51
2023-10-13T04:27:09.829Z,17.54
2023-10-13T04:29:36.857Z,17.53
2023-10-13T04:32:12.203Z,17.54
2023-10-13T04:34:39.122Z,17.54
2023-10-13T04:37:15.310Z,17.51
2023-10-13T04:39:42.804Z,17.50
2023-10-13T04:42:09.671Z,17.45
2023-10-13T04:44:36.473Z,17.46
2023-10-13T04:47:03.807Z,17.45
2023-10-13T04:49:38.268Z,17.32
2023-10-13T04:52:07.359Z,17.43
2023-10-13T04:54:34.257Z,17.46
2023-10-13T04:57:06.112Z,17.44
2023-10-13T04:59:36.401Z,17.37
2023-10-13T05:02:03.534Z,17.44
2023-10-13T05:04:30.481Z,17.45
2023-10-13T05:06:57.782Z,17.43
2023-10-13T05:09:27.401Z,17.27
2023-10-13T05:11:55.317Z,17.43
2023-10-13T05:14:22.157Z,17.41
2023-10-13T05:17:00.561Z,17.42
2023-10-13T05:19:33.140Z,17.43
2023-10-13T05:22:00.520Z,17.44
2023-10-13T05:24:27.763Z,17.41
2023-10-13T05:26:57.446Z,17.40
2023-10-13T05:29:29.210Z,17.39
2023-10-13T05:31:56.500Z,17.43
2023-10-13T05:34:23.513Z,17.44
2023-10-13T05:36:50.432Z,17.47
2023-10-13T05:39:23.604Z,17.51
2023-10-13T05:41:52.391Z,17.54
2023-10-13T05:44:19.405Z,17.66
2023-10-13T05:46:50.342Z,17.73
2023-10-13T05:49:21.793Z,17.68
2023-10-13T05:51:50.372Z,17.86
2023-10-13T05:54:17.176Z,17.93
2023-10-13T05:56:47.377Z,18.01
2023-10-13T05:59:22.629Z,17.93
2023-10-13T06:01:52.779Z,18.08
2023-10-13T06:04:20.062Z,18.14
2023-10-13T06:06:46.971Z,18.24
2023-10-13T06:09:15.520Z,18.31
2023-10-13T06:11:42.360Z,18.42
2023-10-13T06:14:11.929Z,18.60
2023-10-13T06:16:38.825Z,18.83
2023-10-13T06:19:05.680Z,19.15
2023-10-13T06:21:32.452Z,19.51
2023-10-13T06:24:01.736Z,19.82
2023-10-13T06:26:29.143Z,20.13
2023-10-13T06:28:59.853Z,20.39
2023-10-13T06:31:33.188Z,20.58
2023-10-13T06:34:00.078Z,20.89
2023-10-13T06:36:27.095Z,21.05
2023-10-13T06:39:01.599Z,21.32
2023-10-13T06:41:38.726Z,21.61
2023-10-13T06:44:11.199Z,21.88
2023-10-13T06:46:38.313Z,22.15
2023-10-13T06:49:05.305Z,22.44
2023-10-13T06:51:39.977Z,22.70
2023-10-13T06:54:08.731Z,23.12
2023-10-13T06:56:35.592Z,23.49
2023-10-13T06:59:07.378Z,23.86
2023-10-13T07:01:40.706Z,24.18
2023-10-13T07:04:11.108Z,24.44
2023-10-13T07:06:38.730Z,24.67
2023-10-13T07:09:07.287Z,24.81
2023-10-13T07:11:37.174Z,25.15
2023-10-13T07:14:05.660Z,25.44
2023-10-13T07:16:32.581Z,25.67
2023-10-13T07:18:59.540Z,25.88
2023-10-13T07:21:30.885Z,25.98
2023-10-13T07:23:59.433Z,26.15
2023-10-13T07:26:29.544Z,26.40
2023-10-13T07:29:08.137Z,26.44
2023-10-13T07:31:47.151Z,26.51
2023-10-13T07:34:14.360Z,26.58
2023-10-13T07:36:47.393Z,26.55
2023-10-13T07:39:33.561Z,26.60
2023-10-13T07:42:03.654Z,26.38
2023-10-13T07:44:30.702Z,26.06
2023-10-13T07:46:57.716Z,25.89
2023-10-13T07:49:24.956Z,25.76
2023-10-13T07:51:57.012Z,25.60
2023-10-13T07:54:24.083Z,25.47
2023-10-13T07:56:56.338Z,25.34
2023-10-13T07:59:23.107Z,25.23
2023-10-13T08:01:54.401Z,25.18
2023-10-13T08:04:21.266Z,25.39
2023-10-13T08:06:48.069Z,25.41
2023-10-13T08:09:15.559Z,25.45
2023-10-13T08:11:50.500Z,25.07
2023-10-13T08:14:38.844Z,24.97
2023-10-13T08:17:20.551Z,24.78
2023-10-13T08:20:03.303Z,24.62
2023-10-13T08:22:45.597Z,24.50
2023-10-13T08:25:22.962Z,24.47
2023-10-13T08:28:00.263Z,24.29
2023-10-13T08:30:44.872Z,24.37
2023-10-13T08:33:20.742Z,24.59
2023-10-13T08:35:47.747Z,24.78
2023-10-13T08:38:31.930Z,24.83
2023-10-13T08:41:12.227Z,24.87
2023-10-13T08:43:47.405Z,24.67
2023-10-13T08:46:27.081Z,24.52
2023-10-13T08:49:07.700Z,24.44
2023-10-13T08:51:37.461Z,24.47
2023-10-13T08:54:17.964Z,24.40
2023-10-13T08:57:05.893Z,24.47
2023-10-13T08:59:35.939Z,24.50
2023-10-13T09:02:28.832Z,24.62
2023-10-13T09:05:26.985Z,24.95
2023-10-13T09:08:05.750Z,25.15
2023-10-13T09:10:50.729Z,25.35
2023-10-13T09:13:23.555Z,25.39
2023-10-13T09:16:02.954Z,25.21
2023-10-13T09:18:41.075Z,25.06
2023-10-13T09:21:23.744Z,24.86
2023-10-13T09:24:00.954Z,25.03
2023-10-13T09:26:42.859Z,25.27
2023-10-13T09:29:26.843Z,25.61
2023-10-13T09:32:18.108Z,26.24
2023-10-13T09:34:49.422Z,26.74
2023-10-13T09:37:16.295Z,26.96
2023-10-13T09:39:55.252Z,27.16
2023-10-13T09:42:24.297Z,27.55
2023-10-13T09:45:05.889Z,27.87
2023-10-13T09:47:44.556Z,28.20
2023-10-13T09:50:23.856Z,28.37
2023-10-13T09:53:03.630Z,28.45
2023-10-13T09:55:43.593Z,28.52
2023-10-13T09:58:17.882Z,28.80
2023-10-13T10:01:03.237Z,28.72
2023-10-13T10:03:36.148Z,28.71
2023-10-13T10:06:12.443Z,28.68
2023-10-13T10:08:52.436Z,28.65
2023-10-13T10:11:46.830Z,28.81
2023-10-13T10:14:49.291Z,29.00
2023-10-13T10:17:17.042Z,29.16
2023-10-13T10:19:53.540Z,29.03
2023-10-13T10:22:38.135Z,29.05
2023-10-13T10:25:15.113Z,29.34
2023-10-13T10:27:44.465Z,29.44
2023-10-13T10:30:19.614Z,29.60
2023-10-13T10:32:56.292Z,29.61
2023-10-13T10:36:07.255Z,29.67
2023-10-13T10:38:34.296Z,29.71
2023-10-13T10:41:12.022Z,29.47
2023-10-13T10:43:39.033Z,29.56
2023-10-13T10:46:07.131Z,29.67
2023-10-13T10:48:34.005Z,29.87
2023-10-13T10:51:10.212Z,29.95
2023-10-13T10:53:45.188Z,30.12
2023-10-13T10:56:23.475Z,30.23
2023-10-13T10:59:01.753Z,30.10
2023-10-13T11:01:33.359Z,30.06
2023-10-13T11:04:14.242Z,30.06
2023-10-13T11:06:51.571Z,30.14
2023-10-13T11:09:39.290Z,30.23
2023-10-13T11:12:08.992Z,30.51
2023-10-13T11:14:42.996Z,30.73
2023-10-13T11:17:10.602Z,31.02
2023-10-13T11:19:49.048Z,31.05
2023-10-13T11:22:17.827Z,31.25
2023-10-13T11:24:44.825Z,31.30
2023-10-13T11:27:17.740Z,31.24
2023-10-13T11:29:48.552Z,31.35
2023-10-13T11:32:18.925Z,31.48
2023-10-13T11:34:45.798Z,31.72
2023-10-13T11:37:22.952Z,31.96
2023-10-13T11:39:50.270Z,32.20
2023-10-13T11:42:25.927Z,32.17
2023-10-13T11:44:52.843Z,32.15
2023-10-13T11:47:25.929Z,32.25
2023-10-13T11:49:52.937Z,32.47
2023-10-13T11:52:27.911Z,32.53
2023-10-13T11:55:00.685Z,32.11
2023-10-13T11:57:39.727Z,31.83
2023-10-13T12:00:14.390Z,31.80
2023-10-13T12:02:42.533Z,31.83
2023-10-13T12:05:13.953Z,32.02
2023-10-13T12:07:47.290Z,32.08
2023-10-13T12:10:18.625Z,32.31
2023-10-13T12:12:49.126Z,32.49
2023-10-13T12:15:18.214Z,32.41
2023-10-13T12:17:47.260Z,32.37
2023-10-13T12:20:23.226Z,32.19
2023-10-13T12:22:50.875Z,32.14
2023-10-13T12:25:17.807Z,31.93
2023-10-13T12:27:44.632Z,31.72
2023-10-13T12:30:18.796Z,31.46
2023-10-13T12:32:53.611Z,31.15
2023-10-13T12:35:28.061Z,31.00
2023-10-13T12:37:56.023Z,30.89
2023-10-13T12:40:30.896Z,30.56
2023-10-13T12:42:58.024Z,30.35
2023-10-13T12:45:24.809Z,30.13
2023-10-13T12:48:01.811Z,29.91
2023-10-13T12:50:38.167Z,29.57
2023-10-13T12:53:09.902Z,29.39
2023-10-13T12:55:43.468Z,29.41
2023-10-13T12:58:16.593Z,29.52
2023-10-13T13:00:51.537Z,29.68
2023-10-13T13:03:27.139Z,29.77
2023-10-13T13:05:58.857Z,30.05
2023-10-13T13:08:32.291Z,30.13
2023-10-13T13:11:06.726Z,30.12
2023-10-13T13:13:42.238Z,29.93
2023-10-13T13:16:09.891Z,29.76
2023-10-13T13:18:59.358Z,29.64
2023-10-13T13:21:39.584Z,29.66
2023-10-13T13:24:25.910Z,29.58
2023-10-13T13:26:54.684Z,29.54
2023-10-13T13:29:25.208Z,29.66
2023-10-13T13:31:53.098Z,29.78
2023-10-13T13:34:20.266Z,29.75
2023-10-13T13:36:55.398Z,29.83
2023-10-13T13:39:23.020Z,29.90
2023-10-13T13:41:49.800Z,29.93
2023-10-13T13:44:22.887Z,29.98
2023-10-13T13:47:01.204Z,29.95
2023-10-13T13:49:41.717Z,29.95
2023-10-13T13:52:20.888Z,29.54
2023-10-13T13:54:49.168Z,29.21
2023-10-13T13:57:24.917Z,29.00
2023-10-13T13:59:53.383Z,29.02
2023-10-13T14:02:29.040Z,29.04
2023-10-13T14:05:03.067Z,29.13
2023-10-13T14:07:36.239Z,29.13
2023-10-13T14:10:03.143Z,29.20
2023-10-13T14:12:30.024Z,29.20
2023-10-13T14:15:00.620Z,28.94
2023-10-13T14:17:29.622Z,28.81
2023-10-13T14:20:04.973Z,28.62
2023-10-13T14:22:31.954Z,28.80
2023-10-13T14:24:59.197Z,28.89
2023-10-13T14:27:30.871Z,28.97
2023-10-13T14:30:16.350Z,28.95
2023-10-13T14:32:43.645Z,29.02
2023-10-13T14:35:10.995Z,29.02
2023-10-13T14:37:43.517Z,29.03
2023-10-13T14:40:19.227Z,29.23
2023-10-13T14:42:48.877Z,29.37
2023-10-13T14:45:27.062Z,29.34
2023-10-13T14:47:58.882Z,29.48
2023-10-13T14:50:25.811Z,29.47
2023-10-13T14:52:52.821Z,29.37
2023-10-13T14:55:20.633Z,29.43
2023-10-13T14:57:50.635Z,29.33
2023-10-13T15:00:23.340Z,29.24
2023-10-13T15:02:50.258Z,29.02
2023-10-13T15:05:24.393Z,28.88
2023-10-13T15:07:51.736Z,28.70
2023-10-13T15:10:28.133Z,28.54
2023-10-13T15:12:56.002Z,28.47
2023-10-13T15:15:31.429Z,28.43
2023-10-13T15:18:04.610Z,28.37
2023-10-13T15:20:31.470Z,28.28
2023-10-13T15:22:58.391Z,28.16
2023-10-13T15:25:25.852Z,27.99
2023-10-13T15:27:52.719Z,27.85
2023-10-13T15:30:19.586Z,27.71
2023-10-13T15:32:46.552Z,27.59
2023-10-13T15:35:16.336Z,27.47
2023-10-13T15:37:43.324Z,27.33
2023-10-13T15:40:11.138Z,27.19
2023-10-13T15:42:41.040Z,27.09
2023-10-13T15:45:08.403Z,26.99
2023-10-13T15:50:24.608Z,26.77
2023-10-13T15:52:51.760Z,26.73
2023-10-13T15:55:18.635Z,26.61
2023-10-13T15:57:46.382Z,26.49
2023-10-13T16:00:24.828Z,26.33
2023-10-13T16:03:04.377Z,26.14
2023-10-13T16:05:33.626Z,25.98
2023-10-13T16:08:02.042Z,25.79
2023-10-13T16:10:29.439Z,25.63
2023-10-13T16:12:56.570Z,25.41
2023-10-13T16:15:37.237Z,25.16
2023-10-13T16:18:19.665Z,25.09
2023-10-13T16:21:00.356Z,24.89
2023-10-13T16:23:45.046Z,24.70
2023-10-13T16:26:21.716Z,24.53
2023-10-13T16:28:52.423Z,24.26
2023-10-13T16:31:28.359Z,24.20
2023-10-13T16:34:15.457Z,24.03
2023-10-13T16:36:53.341Z,23.90
2023-10-13T16:39:31.210Z,23.71
2023-10-13T16:42:05.513Z,23.67
2023-10-13T16:44:40.809Z,23.59
2023-10-13T16:47:07.683Z,23.54
2023-10-13T16:53:05.924Z,23.29
2023-10-13T16:55:43.213Z,23.18
2023-10-13T16:58:19.038Z,23.10
2023-10-13T17:00:46.488Z,23.05
2023-10-13T17:03:23.100Z,22.91
2023-10-13T17:06:02.077Z,22.87
2023-10-13T17:08:32.615Z,22.78
2023-10-13T17:11:21.037Z,22.67
2023-10-13T17:13:53.770Z,22.45
2023-10-13T17:16:31.438Z,22.53
2023-10-13T17:19:10.688Z,22.50
2023-10-13T17:21:48.403Z,22.34
2023-10-13T17:24:27.136Z,22.32
2023-10-13T17:30:00.171Z,22.26
2023-10-13T17:32:43.775Z,22.21
2023-10-13T17:35:19.909Z,22.13
2023-10-13T17:37:47.051Z,22.01
2023-10-13T17:40:24.242Z,21.96
2023-10-13T17:43:01.685Z,21.82
2023-10-13T17:45:45.737Z,21.73
2023-10-13T17:48:20.448Z,21.76
2023-10-13T17:51:00.740Z,21.67
2023-10-13T17:53:45.430Z,21.59
2023-10-13T17:56:26.353Z,21.54
2023-10-13T17:59:04.380Z,21.32
2023-10-13T18:01:44.859Z,21.44
2023-10-13T18:04:16.834Z,21.41
2023-10-13T18:06:56.250Z,21.35
2023-10-13T18:09:25.279Z,21.32
2023-10-13T18:11:52.253Z,21.21
2023-10-13T18:14:33.169Z,21.17
2023-10-13T18:17:10.617Z,21.08
2023-10-13T18:19:44.051Z,20.95
2023-10-13T18:22:21.861Z,20.95
2023-10-13T18:24:58.333Z,20.84
2023-10-13T18:27:41.594Z,20.77
2023-10-13T18:30:22.488Z,20.78
2023-10-13T18:33:04.202Z,20.69
2023-10-13T18:35:41.777Z,20.69
2023-10-13T18:38:08.672Z,20.64
2023-10-13T18:40:45.688Z,20.58
2023-10-13T18:43:25.272Z,20.51
2023-10-13T18:46:07.997Z,20.40
2023-10-13T18:48:41.745Z,20.36
2023-10-13T18:51:14.949Z,20.31
2023-10-13T18:53:52.320Z,20.24
2023-10-13T18:56:29.743Z,20.06
2023-10-13T18:59:06.823Z,20.03
2023-10-13T19:01:38.471Z,20.11
2023-10-13T19:04:14.022Z,20.05
2023-10-13T19:06:47.454Z,19.91
2023-10-13T19:09:14.245Z,20.01
2023-10-13T19:11:45.878Z,19.89
2023-10-13T19:14:19.834Z,19.90
2023-10-13T19:16:53.552Z,19.94
2023-10-13T19:19:26.789Z,19.90
2023-10-13T19:21:53.592Z,19.91
2023-10-13T19:24:28.116Z,19.80
2023-10-13T19:26:56.737Z,19.86
2023-10-13T19:29:23.635Z,19.91
2023-10-13T19:32:00.921Z,19.93
2023-10-13T19:34:35.501Z,20.03
2023-10-13T19:37:03.214Z,20.11
2023-10-13T19:39:49.402Z,20.13
2023-10-13T19:42:26.990Z,20.23
2023-10-13T19:44:55.273Z,20.30
2023-10-13T19:47:31.454Z,20.28
2023-10-13T19:49:59.188Z,20.39
2023-10-13T19:52:31.015Z,20.32
2023-10-13T19:54:59.989Z,20.44
2023-10-13T19:57:28.453Z,20.45
2023-10-13T20:00:01.039Z,20.49
2023-10-13T20:02:28.011Z,20.53
2023-10-13T20:04:56.179Z,20.51
2023-10-13T20:07:29.703Z,20.50
2023-10-13T20:10:01.558Z,20.48
2023-10-13T20:12:28.378Z,20.61
2023-10-13T20:14:55.158Z,20.64
2023-10-13T20:17:21.979Z,20.67
2023-10-13T20:19:56.971Z,20.61
2023-10-13T20:22:31.109Z,20.72
2023-10-13T20:25:06.825Z,20.76
2023-10-13T20:27:41.456Z,20.82
2023-10-13T20:30:09.759Z,20.85
2023-10-13T20:32:41.164Z,20.73
2023-10-13T20:35:09.004Z,20.88
2023-10-13T20:37:36.668Z,20.88
2023-10-13T20:40:04.101Z,20.91
2023-10-13T20:42:34.894Z,20.79
2023-10-13T20:45:09.970Z,20.81
2023-10-13T20:47:37.854Z,20.84
2023-10-13T20:50:04.862Z,20.89
2023-10-13T20:52:31.676Z,20.87
2023-10-13T20:55:02.572Z,20.86
2023-10-13T20:57:39.226Z,20.63
2023-10-13T21:00:07.767Z,20.84
2023-10-13T21:02:43.463Z,20.82
2023-10-13T21:05:16.901Z,20.67
2023-10-13T21:07:46.612Z,20.72
2023-10-13T21:10:18.681Z,20.65
2023-10-13T21:12:46.144Z,20.67
2023-10-13T21:15:23.214Z,20.62
2023-10-13T21:17:50.264Z,20.61
2023-10-13T21:20:25.653Z,20.46
2023-10-13T21:23:00.879Z,20.40
2023-10-13T21:25:42.935Z,20.48
2023-10-13T21:28:15.172Z,20.40
2023-10-13T21:30:48.640Z,20.31
2023-10-13T21:33:23.375Z,20.42
2023-10-13T21:35:50.343Z,20.40
2023-10-13T21:38:19.801Z,20.36
2023-10-13T21:40:48.989Z,20.32
2023-10-13T21:43:15.776Z,20.42
2023-10-13T21:45:49.493Z,20.41
2023-10-13T21:48:16.555Z,20.32
2023-10-13T21:50:43.913Z,20.38
2023-10-13T21:53:13.452Z,20.29
2023-10-13T21:55:46.561Z,20.33
2023-10-13T21:58:13.485Z,20.38
2023-10-13T22:00:40.701Z,20.26
2023-10-13T22:03:09.804Z,20.31
2023-10-13T22:05:44.208Z,20.26
2023-10-13T22:08:20.953Z,20.28
2023-10-13T22:10:49.762Z,20.28
2023-10-13T22:13:27.325Z,20.22
2023-10-13T22:15:57.272Z,20.21
2023-10-13T22:18:39.345Z,20.13
2023-10-13T22:21:06.448Z,20.13
2023-10-13T22:23:44.084Z,20.05
2023-10-13T22:26:16.714Z,19.96
2023-10-13T22:29:10.961Z,19.94
2023-10-13T22:31:48.666Z,19.96
2023-10-13T22:34:16.429Z,19.94
2023-10-13T22:36:55.325Z,19.94
2023-10-13T22:39:40.811Z,19.93
2023-10-13T22:42:17.142Z,19.91
2023-10-13T22:44:50.389Z,19.91
2023-10-13T22:47:27.683Z,19.87
2023-10-13T22:50:04.939Z,19.81
2023-10-13T22:52:34.289Z,19.94
2023-10-13T22:55:13.100Z,19.86
2023-10-13T22:57:39.880Z,19.90
2023-10-13T23:00:07.650Z,19.82
2023-10-13T23:02:34.483Z,19.83
2023-10-13T23:05:10.977Z,19.77
2023-10-13T23:07:39.182Z,19.75
2023-10-13T23:10:06.742Z,19.66
2023-10-13T23:12:33.593Z,19.63
2023-10-13T23:15:03.126Z,19.59
2023-10-13T23:17:30.114Z,19.57
2023-10-13T23:19:57.063Z,19.53
2023-10-13T23:22:23.929Z,19.48
2023-10-13T23:24:56.223Z,19.32
2023-10-13T23:27:23.136Z,19.43
2023-10-13T23:29:49.907Z,19.32
2023-10-13T23:32:21.771Z,19.34
2023-10-13T23:34:53.123Z,19.33
2023-10-13T23:37:20.316Z,19.27
2023-10-13T23:39:53.202Z,19.33
2023-10-13T23:42:20.080Z,19.32
2023-10-13T23:44:46.962Z,19.25
2023-10-13T23:47:17.311Z,19.31
2023-10-13T23:49:48.462Z,19.22
2023-10-13T23:52:24.656Z,19.19
2023-10-13T23:54:51.609Z,19.30
2023-10-13T23:57:21.404Z,19.25
2023-10-13T23:59:49.934Z,19.27
